createdAt,value
2022-11-25T00:03:49.990Z,24.90
2022-11-25T00:13:54.548Z,27.60
2022-11-25T00:24:01.336Z,27.50
2022-11-25T00:34:04.990Z,25.10
2022-11-25T00:44:29.578Z,28.80
2022-11-25T00:54:34.005Z,26.60
2022-11-25T01:04:37.954Z,25.40
2022-11-25T01:14:41.500Z,25.30
2022-11-25T01:24:44.556Z,25.30
2022-11-25T01:34:47.690Z,22.30
2022-11-25T01:45:19.017Z,25.50
2022-11-25T01:55:30.956Z,25.30
2022-11-25T02:06:22.618Z,27.80
2022-11-25T02:16:26.424Z,25.60
2022-11-25T02:26:31.303Z,29.20
2022-11-25T02:36:34.914Z,26.50
2022-11-25T02:46:38.068Z,28.30
2022-11-25T02:56:41.497Z,29.50
2022-11-25T03:06:45.102Z,32.10
2022-11-25T03:16:48.274Z,30.00
2022-11-25T03:26:51.562Z,28.60
2022-11-25T03:36:55.108Z,28.50
2022-11-25T03:46:59.771Z,28.70
2022-11-25T03:57:03.263Z,27.20
2022-11-25T04:07:09.530Z,27.30
2022-11-25T04:17:12.784Z,25.60
2022-11-25T04:27:16.167Z,27.50
2022-11-25T04:37:19.447Z,26.90
2022-11-25T04:47:23.216Z,24.60
2022-11-25T04:57:26.425Z,25.30
2022-11-25T05:07:29.945Z,25.70
2022-11-25T05:17:33.886Z,24.80
2022-11-25T05:27:37.205Z,25.60
2022-11-25T05:37:45.070Z,24.50
2022-11-25T05:47:48.956Z,27.40
2022-11-25T05:57:54.785Z,26.40
2022-11-25T06:07:58.221Z,26.50
2022-11-25T06:18:02.415Z,25.00
2022-11-25T06:38:20.772Z,26.40
2022-11-25T06:48:23.989Z,25.80
2022-11-25T06:58:35.831Z,25.50
2022-11-25T07:08:39.668Z,29.60
2022-11-25T07:18:43.158Z,28.50
2022-11-25T07:28:46.209Z,28.20
2022-11-25T07:38:49.470Z,29.30
2022-11-25T07:48:54.010Z,29.50
2022-11-25T08:09:00.861Z,30.00
2022-11-25T08:19:07.160Z,30.40
2022-11-25T08:29:13.592Z,29.30
2022-11-25T08:49:42.321Z,29.40
2022-11-25T08:59:45.670Z,28.60
2022-11-25T09:09:49.893Z,30.40
2022-11-25T09:19:53.403Z,29.70
2022-11-25T09:29:56.491Z,28.30
2022-11-25T09:39:59.635Z,27.20
2022-11-25T09:50:27.733Z,26.60
2022-11-25T10:00:51.702Z,28.80
2022-11-25T10:11:03.891Z,28.70
2022-11-25T10:21:10.523Z,29.60
2022-11-25T10:31:27.263Z,30.00
2022-11-25T10:42:03.691Z,28.60
2022-11-25T10:52:12.281Z,27.00
2022-11-25T11:02:28.316Z,29.90
2022-11-25T11:12:33.046Z,28.40
2022-11-25T11:22:44.781Z,28.20
2022-11-25T11:33:28.121Z,25.70
2022-11-25T11:43:54.597Z,28.00
2022-11-25T11:54:10.251Z,29.60
2022-11-25T12:04:20.273Z,31.90
2022-11-25T12:14:44.261Z,32.70
2022-11-25T12:25:01.306Z,32.60
2022-11-25T12:35:10.875Z,32.20
2022-11-25T12:45:25.964Z,31.80
2022-11-25T13:06:16.462Z,39.70
2022-11-25T13:16:21.048Z,37.30
2022-11-25T13:37:47.871Z,38.00
2022-11-25T13:47:51.183Z,37.80
2022-11-25T13:58:41.758Z,43.30
2022-11-25T14:09:10.592Z,39.50
2022-11-25T14:20:00.589Z,34.70
2022-11-25T14:30:17.656Z,32.60
2022-11-25T14:40:27.455Z,33.90
2022-11-25T14:50:35.121Z,31.80
2022-11-25T15:01:57.158Z,34.10
2022-11-25T15:12:47.188Z,37.60
2022-11-25T15:45:43.190Z,37.60
2022-11-25T15:55:46.473Z,40.40
2022-11-25T16:05:57.305Z,39.30
2022-11-25T16:16:15.955Z,41.20
2022-11-25T16:26:32.448Z,42.40
2022-11-25T16:36:35.647Z,43.20
2022-11-25T16:46:38.892Z,46.00
2022-11-25T16:56:43.762Z,46.00
2022-11-25T17:07:09.808Z,44.70
2022-11-25T17:17:24.449Z,46.10
2022-11-25T17:27:31.259Z,45.70
2022-11-25T17:37:34.337Z,46.10
2022-11-25T17:47:37.416Z,44.60
2022-11-25T17:57:40.609Z,45.20
2022-11-25T18:07:46.836Z,44.20
2022-11-25T18:17:51.699Z,46.80
2022-11-25T18:27:57.056Z,47.50
2022-11-25T18:38:00.444Z,45.70
2022-11-25T18:48:14.839Z,47.80
2022-11-25T18:58:23.863Z,49.00
2022-11-25T19:08:27.494Z,51.80
2022-11-25T19:18:30.762Z,53.60
2022-11-25T19:28:34.488Z,53.10
2022-11-25T19:38:37.618Z,55.80
2022-11-25T19:48:40.839Z,53.40
2022-11-25T19:58:44.152Z,53.60
2022-11-25T20:08:47.560Z,50.80
2022-11-25T20:18:53.163Z,50.50
2022-11-25T20:28:56.330Z,48.90
2022-11-25T20:39:01.916Z,49.50
2022-11-25T20:49:21.044Z,50.80
2022-11-25T20:59:24.429Z,51.60
2022-11-25T21:09:35.114Z,49.90
2022-11-25T21:19:38.466Z,51.20
2022-11-25T21:29:43.549Z,50.30
2022-11-25T21:39:46.818Z,50.00
2022-11-25T21:49:50.931Z,48.70
2022-11-25T21:59:54.452Z,50.60
2022-11-25T22:09:57.502Z,49.50
2022-11-25T22:20:00.962Z,50.20
2022-11-25T22:30:05.763Z,52.00
2022-11-25T22:50:20.795Z,53.60
2022-11-25T23:00:31.672Z,56.60
2022-11-25T23:10:34.942Z,53.50
2022-11-25T23:20:39.836Z,55.10
2022-11-25T23:30:58.943Z,53.00
2022-11-25T23:41:02.075Z,51.30
2022-11-25T23:51:06.474Z,51.20
